JES3100 SABE-SACO
Flight info
| Callsign | JES3100 |
|---|---|
| Flight time | 1h 8m |
| Altitude | 34000 |
| Route | ATOVO4B ATOVO UW5 ASISA |
| Aircraft | A320/M-SDE3FGHIRWY/LB1 |
Departure
| Time | 2026-05-08 19:08 |
|---|---|
| Airport | Aeroparque Jorge Newbery (SABE) |
Arrival
| Time | 2026-05-08 20:16 |
|---|---|
| Airport | Ingeniero Aeronáutico Ambrosio L.V. Taravella International Airport (SACO) |
| Time | Latitude | Longitude | Altitude | Speed | Heading |
|---|---|---|---|---|---|
| 2026-05-08 18:33 | -34.55734 | -58.41363 | 26 ft | 0 kts | 32° |
| 2026-05-08 18:57 | -34.55735 | -58.41363 | 26 ft | 3 kts | 32° |
| 2026-05-08 18:57 | -34.55753 | -58.41376 | 31 ft | 3 kts | 23° |
| 2026-05-08 18:58 | -34.55767 | -58.41383 | 27 ft | 2 kts | 0° |
| 2026-05-08 18:58 | -34.55778 | -58.41382 | 28 ft | 2 kts | 327° |
| 2026-05-08 18:58 | -34.55787 | -58.41374 | 30 ft | 2 kts | 310° |
| 2026-05-08 18:58 | -34.55794 | -58.41364 | 29 ft | 2 kts | 303° |
| 2026-05-08 18:59 | -34.55798 | -58.41356 | 29 ft | 0 kts | 303° |
| 2026-05-08 18:59 | -34.55795 | -58.41360 | 29 ft | 1 kts | 306° |
| 2026-05-08 18:59 | -34.55794 | -58.41362 | 29 ft | 0 kts | 307° |
| 2026-05-08 19:02 | -34.55778 | -58.41391 | 26 ft | 8 kts | 304° |
| 2026-05-08 19:02 | -34.55744 | -58.41452 | 30 ft | 10 kts | 302° |
| 2026-05-08 19:02 | -34.55718 | -58.41535 | 28 ft | 11 kts | 263° |
| 2026-05-08 19:03 | -34.55781 | -58.41593 | 25 ft | 12 kts | 191° |
| 2026-05-08 19:03 | -34.55835 | -58.41517 | 30 ft | 13 kts | 116° |
| 2026-05-08 19:03 | -34.55879 | -58.41411 | 28 ft | 15 kts | 117° |
| 2026-05-08 19:03 | -34.55930 | -58.41294 | 27 ft | 16 kts | 121° |
| 2026-05-08 19:04 | -34.56001 | -58.41178 | 29 ft | 18 kts | 128° |
| 2026-05-08 19:04 | -34.56080 | -58.41052 | 28 ft | 20 kts | 128° |
| 2026-05-08 19:04 | -34.56160 | -58.40911 | 29 ft | 18 kts | 118° |
| 2026-05-08 19:04 | -34.56194 | -58.40790 | 26 ft | 16 kts | 124° |
| 2026-05-08 19:05 | -34.56259 | -58.40673 | 26 ft | 18 kts | 124° |
| 2026-05-08 19:05 | -34.56317 | -58.40577 | 26 ft | 13 kts | 133° |
| 2026-05-08 19:05 | -34.56385 | -58.40502 | 28 ft | 12 kts | 138° |
| 2026-05-08 19:05 | -34.56409 | -58.40476 | 26 ft | 0 kts | 138° |
| 2026-05-08 19:06 | -34.56410 | -58.40475 | 26 ft | 1 kts | 138° |
| 2026-05-08 19:06 | -34.56420 | -58.40464 | 29 ft | 3 kts | 138° |
| 2026-05-08 19:06 | -34.56449 | -58.40432 | 29 ft | 7 kts | 139° |
| 2026-05-08 19:06 | -34.56497 | -58.40383 | 25 ft | 11 kts | 149° |
| 2026-05-08 19:07 | -34.56557 | -58.40431 | 25 ft | 12 kts | 266° |
| 2026-05-08 19:07 | -34.56513 | -58.40523 | 25 ft | 14 kts | 303° |
| 2026-05-08 19:07 | -34.56395 | -58.40738 | 26 ft | 60 kts | 303° |
| 2026-05-08 19:07 | -34.56046 | -58.41361 | 29 ft | 115 kts | 304° |
| 2026-05-08 19:08 | -34.55524 | -58.42287 | 205 ft | 139 kts | 301° |
| 2026-05-08 19:08 | -34.54990 | -58.43260 | 734 ft | 138 kts | 299° |
| 2026-05-08 19:08 | -34.54435 | -58.44219 | 1260 ft | 142 kts | 305° |
| 2026-05-08 19:08 | -34.53630 | -58.45114 | 1417 ft | 173 kts | 317° |
| 2026-05-08 19:09 | -34.52465 | -58.45839 | 1628 ft | 205 kts | 334° |
| 2026-05-08 19:09 | -34.50947 | -58.46142 | 1927 ft | 238 kts | 351° |
| 2026-05-08 19:09 | -34.49276 | -58.46464 | 2451 ft | 245 kts | 328° |
| 2026-05-08 19:09 | -34.48078 | -58.47804 | 3257 ft | 238 kts | 298° |
| 2026-05-08 19:10 | -34.47169 | -58.49502 | 4142 ft | 243 kts | 298° |
| 2026-05-08 19:10 | -34.46200 | -58.51212 | 4975 ft | 249 kts | 299° |
| 2026-05-08 19:10 | -34.45175 | -58.52945 | 5802 ft | 256 kts | 300° |
| 2026-05-08 19:10 | -34.44106 | -58.54700 | 6590 ft | 262 kts | 301° |
| 2026-05-08 19:11 | -34.43006 | -58.56475 | 7415 ft | 265 kts | 302° |
| 2026-05-08 19:11 | -34.41890 | -58.58264 | 8273 ft | 267 kts | 302° |
| 2026-05-08 19:11 | -34.40765 | -58.60063 | 9123 ft | 269 kts | 303° |
| 2026-05-08 19:11 | -34.39629 | -58.61879 | 9941 ft | 272 kts | 303° |
| 2026-05-08 19:12 | -34.38454 | -58.63762 | 10303 ft | 292 kts | 303° |
| 2026-05-08 19:12 | -34.37186 | -58.65790 | 10599 ft | 310 kts | 304° |
| 2026-05-08 19:12 | -34.35869 | -58.67884 | 11220 ft | 315 kts | 304° |
| 2026-05-08 19:12 | -34.34548 | -58.69985 | 11865 ft | 320 kts | 305° |
| 2026-05-08 19:13 | -34.33186 | -58.72152 | 12569 ft | 323 kts | 305° |
| 2026-05-08 19:13 | -34.31817 | -58.74330 | 13232 ft | 327 kts | 306° |
| 2026-05-08 19:13 | -34.30426 | -58.76540 | 13804 ft | 333 kts | 306° |
| 2026-05-08 19:13 | -34.29015 | -58.78785 | 14371 ft | 337 kts | 306° |
| 2026-05-08 19:14 | -34.27609 | -58.81024 | 14941 ft | 340 kts | 305° |
| 2026-05-08 19:14 | -34.26173 | -58.83310 | 15535 ft | 342 kts | 304° |
| 2026-05-08 19:14 | -34.24729 | -58.85608 | 16158 ft | 344 kts | 304° |
| 2026-05-08 19:14 | -34.23271 | -58.87922 | 16738 ft | 347 kts | 304° |
| 2026-05-08 19:15 | -34.21798 | -58.90259 | 17281 ft | 352 kts | 304° |
| 2026-05-08 19:15 | -34.20304 | -58.92627 | 17819 ft | 356 kts | 304° |
| 2026-05-08 19:15 | -34.18796 | -58.95017 | 18359 ft | 359 kts | 303° |
| 2026-05-08 19:15 | -34.17283 | -58.97413 | 18901 ft | 361 kts | 304° |
| 2026-05-08 19:16 | -34.15754 | -58.99832 | 19432 ft | 363 kts | 304° |
| 2026-05-08 19:16 | -34.14215 | -59.02269 | 19956 ft | 366 kts | 304° |
| 2026-05-08 19:16 | -34.12664 | -59.04721 | 20422 ft | 370 kts | 304° |
| 2026-05-08 19:16 | -34.11093 | -59.07201 | 20863 ft | 374 kts | 304° |
| 2026-05-08 19:17 | -34.09504 | -59.09703 | 21329 ft | 377 kts | 304° |
| 2026-05-08 19:17 | -34.07904 | -59.12221 | 21784 ft | 380 kts | 304° |
| 2026-05-08 19:17 | -34.06290 | -59.14761 | 22241 ft | 383 kts | 304° |
| 2026-05-08 19:17 | -34.04638 | -59.17293 | 22703 ft | 386 kts | 306° |
| 2026-05-08 19:18 | -34.02923 | -59.19806 | 23195 ft | 388 kts | 306° |
| 2026-05-08 19:18 | -34.01173 | -59.22305 | 23626 ft | 390 kts | 307° |
| 2026-05-08 19:18 | -33.99406 | -59.24805 | 23999 ft | 393 kts | 307° |
| 2026-05-08 19:18 | -33.97623 | -59.27328 | 24367 ft | 396 kts | 307° |
| 2026-05-08 19:19 | -33.95838 | -59.29868 | 24718 ft | 399 kts | 307° |
| 2026-05-08 19:19 | -33.94042 | -59.32433 | 25071 ft | 402 kts | 307° |
| 2026-05-08 19:19 | -33.92237 | -59.35024 | 25393 ft | 406 kts | 307° |
| 2026-05-08 19:19 | -33.90419 | -59.37638 | 25748 ft | 409 kts | 307° |
| 2026-05-08 19:20 | -33.88590 | -59.40268 | 26111 ft | 411 kts | 307° |
| 2026-05-08 19:20 | -33.87993 | -59.41126 | 26228 ft | 412 kts | 307° |
| 2026-05-08 19:20 | -33.84903 | -59.45574 | 26819 ft | 415 kts | 307° |
| 2026-05-08 19:20 | -33.83041 | -59.48245 | 27167 ft | 418 kts | 307° |
| 2026-05-08 19:21 | -33.81187 | -59.50896 | 27500 ft | 421 kts | 307° |
| 2026-05-08 19:21 | -33.79295 | -59.53600 | 27821 ft | 424 kts | 307° |
| 2026-05-08 19:21 | -33.77388 | -59.56319 | 28162 ft | 427 kts | 307° |
| 2026-05-08 19:21 | -33.75442 | -59.59088 | 28508 ft | 429 kts | 307° |
| 2026-05-08 19:22 | -33.73512 | -59.61837 | 28840 ft | 432 kts | 307° |
| 2026-05-08 19:22 | -33.71594 | -59.64571 | 29165 ft | 435 kts | 307° |
| 2026-05-08 19:22 | -33.69643 | -59.67355 | 29489 ft | 437 kts | 307° |
| 2026-05-08 19:22 | -33.67675 | -59.70162 | 29817 ft | 440 kts | 307° |
| 2026-05-08 19:23 | -33.65695 | -59.72980 | 30095 ft | 443 kts | 307° |
| 2026-05-08 19:23 | -33.63706 | -59.75804 | 30475 ft | 442 kts | 307° |
| 2026-05-08 19:23 | -33.61720 | -59.78614 | 30910 ft | 441 kts | 307° |
| 2026-05-08 19:23 | -33.59736 | -59.81408 | 31338 ft | 439 kts | 307° |
| 2026-05-08 19:24 | -33.57762 | -59.84190 | 31795 ft | 437 kts | 307° |
| 2026-05-08 19:24 | -33.55791 | -59.86969 | 32246 ft | 436 kts | 307° |
| 2026-05-08 19:24 | -33.53834 | -59.89734 | 32657 ft | 434 kts | 307° |
| 2026-05-08 19:24 | -33.51884 | -59.92494 | 33103 ft | 433 kts | 307° |
| 2026-05-08 19:25 | -33.49940 | -59.95249 | 33523 ft | 432 kts | 308° |
| 2026-05-08 19:25 | -33.47999 | -59.97993 | 33926 ft | 431 kts | 307° |
| 2026-05-08 19:25 | -33.46058 | -60.00731 | 34284 ft | 430 kts | 308° |
| 2026-05-08 19:25 | -33.44121 | -60.03460 | 34620 ft | 429 kts | 308° |
| 2026-05-08 19:26 | -33.42191 | -60.06181 | 34944 ft | 428 kts | 308° |
| 2026-05-08 19:26 | -33.40289 | -60.08858 | 35262 ft | 427 kts | 308° |
| 2026-05-08 19:26 | -33.38366 | -60.11558 | 35575 ft | 426 kts | 308° |
| 2026-05-08 19:26 | -33.36444 | -60.14252 | 35786 ft | 425 kts | 308° |
| 2026-05-08 19:27 | -33.34521 | -60.16942 | 35834 ft | 426 kts | 308° |
| 2026-05-08 19:27 | -33.30663 | -60.22342 | 35841 ft | 428 kts | 308° |
| 2026-05-08 19:28 | -33.26793 | -60.27750 | 35840 ft | 428 kts | 308° |
| 2026-05-08 19:28 | -33.22925 | -60.33164 | 35849 ft | 428 kts | 308° |
| 2026-05-08 19:29 | -33.19064 | -60.38555 | 35867 ft | 426 kts | 308° |
| 2026-05-08 19:29 | -33.15859 | -60.43020 | 35867 ft | 426 kts | 308° |
| 2026-05-08 19:30 | -33.11370 | -60.49257 | 35872 ft | 426 kts | 308° |
| 2026-05-08 19:30 | -33.08124 | -60.53760 | 35869 ft | 427 kts | 308° |
| 2026-05-08 19:31 | -33.04275 | -60.59094 | 35887 ft | 427 kts | 308° |
| 2026-05-08 19:31 | -33.00402 | -60.64452 | 35875 ft | 426 kts | 308° |
| 2026-05-08 19:32 | -32.96536 | -60.69812 | 35881 ft | 426 kts | 308° |
| 2026-05-08 19:32 | -32.92666 | -60.75157 | 35876 ft | 426 kts | 308° |
| 2026-05-08 19:33 | -32.89184 | -60.80804 | 35874 ft | 421 kts | 297° |
| 2026-05-08 19:33 | -32.86244 | -60.86792 | 35872 ft | 422 kts | 297° |
| 2026-05-08 19:34 | -32.83271 | -60.92806 | 35882 ft | 422 kts | 297° |
| 2026-05-08 19:34 | -32.80296 | -60.98818 | 35894 ft | 422 kts | 297° |
| 2026-05-08 19:35 | -32.77315 | -61.04826 | 35901 ft | 422 kts | 297° |
| 2026-05-08 19:35 | -32.74327 | -61.10838 | 35901 ft | 422 kts | 297° |
| 2026-05-08 19:36 | -32.71335 | -61.16850 | 35884 ft | 422 kts | 297° |
| 2026-05-08 19:36 | -32.68346 | -61.22847 | 35901 ft | 422 kts | 297° |
| 2026-05-08 19:37 | -32.65358 | -61.28836 | 35906 ft | 422 kts | 297° |
| 2026-05-08 19:37 | -32.62372 | -61.34820 | 35921 ft | 421 kts | 297° |
| 2026-05-08 19:38 | -32.59380 | -61.40798 | 35920 ft | 421 kts | 297° |
| 2026-05-08 19:38 | -32.56382 | -61.46776 | 35918 ft | 421 kts | 297° |
| 2026-05-08 19:39 | -32.53383 | -61.52742 | 35915 ft | 421 kts | 297° |
| 2026-05-08 19:39 | -32.50388 | -61.58696 | 35925 ft | 420 kts | 297° |
| 2026-05-08 19:40 | -32.47413 | -61.64604 | 35921 ft | 420 kts | 297° |
| 2026-05-08 19:40 | -32.44392 | -61.70583 | 35931 ft | 420 kts | 297° |
| 2026-05-08 19:41 | -32.41415 | -61.76471 | 35935 ft | 420 kts | 297° |
| 2026-05-08 19:41 | -32.38421 | -61.82397 | 35912 ft | 419 kts | 297° |
| 2026-05-08 19:42 | -32.35420 | -61.88304 | 35926 ft | 418 kts | 297° |
| 2026-05-08 19:42 | -32.32419 | -61.94197 | 35942 ft | 418 kts | 297° |
| 2026-05-08 19:43 | -32.29434 | -62.00095 | 35937 ft | 418 kts | 297° |
| 2026-05-08 19:43 | -32.26445 | -62.05986 | 35936 ft | 418 kts | 297° |
| 2026-05-08 19:44 | -32.23442 | -62.11879 | 35938 ft | 418 kts | 297° |
| 2026-05-08 19:44 | -32.20435 | -62.17753 | 35939 ft | 418 kts | 297° |
| 2026-05-08 19:45 | -32.17434 | -62.23615 | 35943 ft | 417 kts | 297° |
| 2026-05-08 19:45 | -32.14442 | -62.29467 | 35946 ft | 417 kts | 297° |
| 2026-05-08 19:46 | -32.11439 | -62.35320 | 35948 ft | 417 kts | 297° |
| 2026-05-08 19:46 | -32.06930 | -62.44078 | 35952 ft | 416 kts | 297° |
| 2026-05-08 19:47 | -32.03929 | -62.49909 | 35945 ft | 416 kts | 297° |
| 2026-05-08 19:47 | -32.00923 | -62.55723 | 35951 ft | 415 kts | 296° |
| 2026-05-08 19:48 | -31.97934 | -62.61535 | 35952 ft | 415 kts | 296° |
| 2026-05-08 19:48 | -31.94937 | -62.67336 | 35953 ft | 415 kts | 297° |
| 2026-05-08 19:49 | -31.91953 | -62.73096 | 35954 ft | 415 kts | 297° |
| 2026-05-08 19:49 | -31.88948 | -62.78893 | 35939 ft | 414 kts | 296° |
| 2026-05-08 19:50 | -31.85942 | -62.84665 | 35947 ft | 413 kts | 296° |
| 2026-05-08 19:50 | -31.82931 | -62.90432 | 35949 ft | 413 kts | 296° |
| 2026-05-08 19:51 | -31.79926 | -62.96202 | 35948 ft | 414 kts | 296° |
| 2026-05-08 19:51 | -31.78422 | -62.99090 | 35768 ft | 414 kts | 296° |
| 2026-05-08 19:51 | -31.76920 | -63.01965 | 35526 ft | 412 kts | 296° |
| 2026-05-08 19:52 | -31.75428 | -63.04821 | 35299 ft | 410 kts | 296° |
| 2026-05-08 19:52 | -31.73938 | -63.07673 | 35060 ft | 409 kts | 296° |
| 2026-05-08 19:52 | -31.72449 | -63.10518 | 34800 ft | 407 kts | 296° |
| 2026-05-08 19:52 | -31.70968 | -63.13335 | 34565 ft | 404 kts | 296° |
| 2026-05-08 19:53 | -31.69507 | -63.16122 | 34335 ft | 405 kts | 296° |
| 2026-05-08 19:53 | -31.68030 | -63.18938 | 34108 ft | 405 kts | 296° |
| 2026-05-08 19:53 | -31.66621 | -63.21787 | 33873 ft | 400 kts | 290° |
| 2026-05-08 19:53 | -31.65531 | -63.24784 | 33595 ft | 397 kts | 287° |
| 2026-05-08 19:54 | -31.64482 | -63.27771 | 33334 ft | 395 kts | 287° |
| 2026-05-08 19:54 | -31.63435 | -63.30748 | 33079 ft | 394 kts | 287° |
| 2026-05-08 19:54 | -31.62392 | -63.33709 | 32807 ft | 392 kts | 287° |
| 2026-05-08 19:54 | -31.61348 | -63.36658 | 32541 ft | 390 kts | 288° |
| 2026-05-08 19:55 | -31.60310 | -63.39582 | 32268 ft | 387 kts | 288° |
| 2026-05-08 19:55 | -31.59277 | -63.42481 | 31817 ft | 384 kts | 288° |
| 2026-05-08 19:55 | -31.58251 | -63.45365 | 31353 ft | 382 kts | 287° |
| 2026-05-08 19:55 | -31.57233 | -63.48232 | 30893 ft | 380 kts | 287° |
| 2026-05-08 19:56 | -31.56224 | -63.51084 | 30432 ft | 377 kts | 287° |
| 2026-05-08 19:56 | -31.55230 | -63.53886 | 29834 ft | 378 kts | 287° |
| 2026-05-08 19:56 | -31.54207 | -63.56771 | 28925 ft | 385 kts | 287° |
| 2026-05-08 19:56 | -31.53189 | -63.59623 | 28791 ft | 373 kts | 287° |
| 2026-05-08 19:57 | -31.52073 | -63.62342 | 28500 ft | 371 kts | 297° |
| 2026-05-08 19:57 | -31.50404 | -63.64681 | 28075 ft | 380 kts | 312° |
| 2026-05-08 19:57 | -31.48201 | -63.66446 | 27637 ft | 390 kts | 328° |
| 2026-05-08 19:57 | -31.45598 | -63.67455 | 27177 ft | 401 kts | 343° |
| 2026-05-08 19:58 | -31.42832 | -63.67970 | 26690 ft | 402 kts | 345° |
| 2026-05-08 19:58 | -31.40071 | -63.68468 | 26204 ft | 402 kts | 345° |
| 2026-05-08 19:58 | -31.37308 | -63.68961 | 25700 ft | 402 kts | 345° |
| 2026-05-08 19:58 | -31.34546 | -63.69455 | 25186 ft | 401 kts | 345° |
| 2026-05-08 19:59 | -31.31782 | -63.69953 | 24668 ft | 402 kts | 345° |
| 2026-05-08 19:59 | -31.29017 | -63.70458 | 24178 ft | 401 kts | 345° |
| 2026-05-08 19:59 | -31.26275 | -63.70962 | 23695 ft | 400 kts | 345° |
| 2026-05-08 19:59 | -31.23553 | -63.71461 | 23065 ft | 391 kts | 345° |
| 2026-05-08 20:00 | -31.20896 | -63.71945 | 22449 ft | 380 kts | 345° |
| 2026-05-08 20:00 | -31.18418 | -63.72683 | 21943 ft | 355 kts | 328° |
| 2026-05-08 20:00 | -31.16393 | -63.74162 | 21465 ft | 337 kts | 310° |
| 2026-05-08 20:00 | -31.14924 | -63.76194 | 21073 ft | 320 kts | 294° |
| 2026-05-08 20:01 | -31.14050 | -63.78514 | 20713 ft | 307 kts | 279° |
| 2026-05-08 20:01 | -31.13762 | -63.80924 | 20357 ft | 296 kts | 266° |
| 2026-05-08 20:01 | -31.13774 | -63.83277 | 20015 ft | 292 kts | 265° |
| 2026-05-08 20:01 | -31.13784 | -63.85639 | 19671 ft | 289 kts | 265° |
| 2026-05-08 20:02 | -31.13790 | -63.87977 | 19330 ft | 287 kts | 265° |
| 2026-05-08 20:02 | -31.13791 | -63.90299 | 18990 ft | 284 kts | 265° |
| 2026-05-08 20:02 | -31.13794 | -63.92601 | 18654 ft | 282 kts | 265° |
| 2026-05-08 20:02 | -31.13800 | -63.94881 | 18321 ft | 280 kts | 265° |
| 2026-05-08 20:03 | -31.13805 | -63.97150 | 17958 ft | 278 kts | 265° |
| 2026-05-08 20:03 | -31.13808 | -63.99395 | 17631 ft | 275 kts | 265° |
| 2026-05-08 20:03 | -31.13809 | -64.01625 | 17288 ft | 273 kts | 265° |
| 2026-05-08 20:03 | -31.13812 | -64.03828 | 16964 ft | 270 kts | 265° |
| 2026-05-08 20:04 | -31.13816 | -64.06012 | 16639 ft | 268 kts | 265° |
| 2026-05-08 20:04 | -31.13820 | -64.08176 | 16319 ft | 266 kts | 265° |
| 2026-05-08 20:04 | -31.13822 | -64.10327 | 16012 ft | 264 kts | 265° |
| 2026-05-08 20:04 | -31.13821 | -64.12461 | 15698 ft | 262 kts | 265° |
| 2026-05-08 20:05 | -31.13823 | -64.14582 | 15407 ft | 260 kts | 265° |
| 2026-05-08 20:05 | -31.13822 | -64.16663 | 15280 ft | 252 kts | 265° |
| 2026-05-08 20:05 | -31.13820 | -64.18678 | 15132 ft | 245 kts | 265° |
| 2026-05-08 20:05 | -31.14043 | -64.20619 | 14778 ft | 244 kts | 248° |
| 2026-05-08 20:06 | -31.14900 | -64.22430 | 14119 ft | 265 kts | 232° |
| 2026-05-08 20:06 | -31.16205 | -64.23972 | 13408 ft | 278 kts | 224° |
| 2026-05-08 20:06 | -31.17653 | -64.25535 | 12608 ft | 289 kts | 225° |
| 2026-05-08 20:06 | -31.19130 | -64.27187 | 11953 ft | 296 kts | 225° |
| 2026-05-08 20:07 | -31.20594 | -64.28847 | 11518 ft | 290 kts | 225° |
| 2026-05-08 20:07 | -31.22019 | -64.30467 | 10992 ft | 282 kts | 225° |
| 2026-05-08 20:07 | -31.23397 | -64.32037 | 10602 ft | 271 kts | 225° |
| 2026-05-08 20:07 | -31.24721 | -64.33545 | 10228 ft | 260 kts | 225° |
| 2026-05-08 20:08 | -31.25995 | -64.34992 | 9885 ft | 252 kts | 225° |
| 2026-05-08 20:08 | -31.27254 | -64.36423 | 9523 ft | 253 kts | 225° |
| 2026-05-08 20:08 | -31.28520 | -64.37862 | 9158 ft | 254 kts | 225° |
| 2026-05-08 20:08 | -31.29787 | -64.39303 | 8815 ft | 255 kts | 225° |
| 2026-05-08 20:09 | -31.31057 | -64.40748 | 8456 ft | 255 kts | 225° |
| 2026-05-08 20:09 | -31.32330 | -64.42195 | 8104 ft | 255 kts | 224° |
| 2026-05-08 20:09 | -31.33609 | -64.43649 | 7756 ft | 257 kts | 225° |
| 2026-05-08 20:09 | -31.34906 | -64.45104 | 7418 ft | 259 kts | 221° |
| 2026-05-08 20:10 | -31.36468 | -64.46143 | 7076 ft | 262 kts | 198° |
| 2026-05-08 20:10 | -31.38275 | -64.46374 | 6733 ft | 265 kts | 174° |
| 2026-05-08 20:10 | -31.40008 | -64.45736 | 6629 ft | 260 kts | 152° |
| 2026-05-08 20:10 | -31.41484 | -64.44556 | 6513 ft | 253 kts | 146° |
| 2026-05-08 20:11 | -31.42876 | -64.43387 | 6403 ft | 245 kts | 146° |
| 2026-05-08 20:11 | -31.44208 | -64.42195 | 6283 ft | 237 kts | 136° |
| 2026-05-08 20:11 | -31.45351 | -64.40829 | 6161 ft | 234 kts | 135° |
| 2026-05-08 20:11 | -31.46409 | -64.39391 | 6050 ft | 233 kts | 117° |
| 2026-05-08 20:12 | -31.46661 | -64.37568 | 5931 ft | 228 kts | 77° |
| 2026-05-08 20:12 | -31.45903 | -64.35969 | 5549 ft | 228 kts | 46° |
| 2026-05-08 20:12 | -31.44776 | -64.34640 | 5196 ft | 231 kts | 41° |
| 2026-05-08 20:12 | -31.43599 | -64.33352 | 4850 ft | 233 kts | 41° |
| 2026-05-08 20:13 | -31.42408 | -64.32063 | 4497 ft | 235 kts | 41° |
| 2026-05-08 20:13 | -31.41213 | -64.30759 | 4128 ft | 232 kts | 43° |
| 2026-05-08 20:13 | -31.40064 | -64.29489 | 3801 ft | 223 kts | 44° |
| 2026-05-08 20:13 | -31.38956 | -64.28256 | 3477 ft | 215 kts | 45° |
| 2026-05-08 20:14 | -31.37899 | -64.27071 | 3179 ft | 207 kts | 46° |
| 2026-05-08 20:14 | -31.36882 | -64.25925 | 2878 ft | 201 kts | 45° |
| 2026-05-08 20:14 | -31.35898 | -64.24816 | 2594 ft | 192 kts | 45° |
| 2026-05-08 20:14 | -31.34973 | -64.23770 | 2343 ft | 181 kts | 45° |
| 2026-05-08 20:15 | -31.34121 | -64.22795 | 2214 ft | 154 kts | 45° |
| 2026-05-08 20:15 | -31.33368 | -64.21932 | 1958 ft | 147 kts | 45° |
| 2026-05-08 20:15 | -31.32648 | -64.21126 | 1734 ft | 141 kts | 43° |
| 2026-05-08 20:15 | -31.32183 | -64.20601 | 1628 ft | 140 kts | 45° |
| 2026-05-08 20:16 | -31.31442 | -64.19761 | 1616 ft | 79 kts | 44° |
| 2026-05-08 20:16 | -31.31171 | -64.19453 | 1622 ft | 30 kts | 44° |
| 2026-05-08 20:16 | -31.31116 | -64.19377 | 1619 ft | 15 kts | 52° |
| 2026-05-08 20:16 | -31.31097 | -64.19376 | 1620 ft | 0 kts | 253° |
| 2026-05-08 20:17 | -31.31122 | -64.19406 | 1620 ft | 12 kts | 226° |
| 2026-05-08 20:17 | -31.31165 | -64.19456 | 1620 ft | 14 kts | 224° |
| 2026-05-08 20:17 | -31.31259 | -64.19559 | 1621 ft | 25 kts | 223° |
| 2026-05-08 20:17 | -31.31396 | -64.19714 | 1617 ft | 29 kts | 224° |
| 2026-05-08 20:18 | -31.31547 | -64.19882 | 1616 ft | 31 kts | 223° |
| 2026-05-08 20:18 | -31.31708 | -64.20058 | 1614 ft | 32 kts | 223° |
| 2026-05-08 20:18 | -31.31872 | -64.20244 | 1624 ft | 34 kts | 224° |
| 2026-05-08 20:18 | -31.32043 | -64.20438 | 1619 ft | 35 kts | 224° |
| 2026-05-08 20:19 | -31.32224 | -64.20642 | 1612 ft | 36 kts | 224° |
| 2026-05-08 20:19 | -31.32383 | -64.20826 | 1618 ft | 29 kts | 225° |
| 2026-05-08 20:19 | -31.32425 | -64.20977 | 1614 ft | 21 kts | 306° |
| 2026-05-08 20:19 | -31.32287 | -64.21021 | 1617 ft | 22 kts | 359° |
| 2026-05-08 20:20 | -31.32126 | -64.21023 | 1615 ft | 24 kts | 359° |
| 2026-05-08 20:20 | -31.31954 | -64.21027 | 1617 ft | 25 kts | 359° |
| 2026-05-08 20:20 | -31.31836 | -64.21028 | 1616 ft | 10 kts | 359° |
| 2026-05-08 20:20 | -31.31765 | -64.21048 | 1615 ft | 12 kts | 320° |
| 2026-05-08 20:21 | -31.31705 | -64.21121 | 1619 ft | 13 kts | 307° |
| 2026-05-08 20:21 | -31.31686 | -64.21152 | 1619 ft | 2 kts | 307° |
| 2026-05-08 20:21 | -31.31684 | -64.21154 | 1618 ft | 0 kts | 307° |